Terminal Aerodrome Forecast
Issued by NWS Houston/Galveston, TX

Home | Current Version | Previous Version | Text Only | Print | Product List | Glossary On
Versions: 1 2 3 4 5 6 7 8 9 10 11 12 13 14 15 16 17 18 19 20 21 22 23 24 25 26 27 28
256
FTUS44 KHGX 060523
TAFCLL
TAF
KCLL 060523Z 0606/0706 12004KT P6SM BKN090
     FM060800 16006KT P6SM VCSH BKN035 BKN100
      TEMPO 0608/0611 -SHRA
     FM061100 26009KT P6SM BKN035
     FM061600 33012G17KT P6SM SCT035
     FM062300 36007KT P6SM BKN030=

USA.gov is the U.S. government's official web portal to all federal, state and local government web resources and services.